sensor_id;sensor_type;location;lat;lon;timestamp;temperature;humidity
20504;DHT22;10410;51.046;6.980;2023-03-05T00:05:09;5.00;99.90
20504;DHT22;10410;51.046;6.980;2023-03-05T00:12:10;4.90;99.90
20504;DHT22;10410;51.046;6.980;2023-03-05T00:19:11;4.80;99.90
20504;DHT22;10410;51.046;6.980;2023-03-05T00:26:11;4.80;99.90
20504;DHT22;10410;51.046;6.980;2023-03-05T00:33:12;4.70;99.90
20504;DHT22;10410;51.046;6.980;2023-03-05T00:40:13;4.70;99.90
20504;DHT22;10410;51.046;6.980;2023-03-05T00:47:14;4.70;99.90
20504;DHT22;10410;51.046;6.980;2023-03-05T00:54:17;4.60;99.90
20504;DHT22;10410;51.046;6.980;2023-03-05T01:01:18;4.60;99.90
20504;DHT22;10410;51.046;6.980;2023-03-05T01:08:18;4.50;99.90
20504;DHT22;10410;51.046;6.980;2023-03-05T01:15:19;4.50;99.90
20504;DHT22;10410;51.046;6.980;2023-03-05T01:22:19;4.50;99.90
20504;DHT22;10410;51.046;6.980;2023-03-05T01:29:20;4.50;99.90
20504;DHT22;10410;51.046;6.980;2023-03-05T01:36:21;4.40;99.90
20504;DHT22;10410;51.046;6.980;2023-03-05T01:43:26;4.40;99.90
20504;DHT22;10410;51.046;6.980;2023-03-05T01:50:28;4.40;99.90
20504;DHT22;10410;51.046;6.980;2023-03-05T01:57:54;4.40;99.90
20504;DHT22;10410;51.046;6.980;2023-03-05T02:04:59;4.40;99.90
20504;DHT22;10410;51.046;6.980;2023-03-05T02:12:00;4.40;99.90
20504;DHT22;10410;51.046;6.980;2023-03-05T02:19:04;4.30;99.90
20504;DHT22;10410;51.046;6.980;2023-03-05T02:26:08;4.30;99.90
20504;DHT22;10410;51.046;6.980;2023-03-05T02:33:09;4.20;99.90
20504;DHT22;10410;51.046;6.980;2023-03-05T02:40:11;4.20;99.90
20504;DHT22;10410;51.046;6.980;2023-03-05T02:47:12;4.20;99.90
20504;DHT22;10410;51.046;6.980;2023-03-05T02:54:14;4.20;99.90
20504;DHT22;10410;51.046;6.980;2023-03-05T03:01:14;4.20;99.90
20504;DHT22;10410;51.046;6.980;2023-03-05T03:08:14;4.10;99.90
20504;DHT22;10410;51.046;6.980;2023-03-05T03:15:15;4.10;99.90
20504;DHT22;10410;51.046;6.980;2023-03-05T03:22:16;4.10;99.90
20504;DHT22;10410;51.046;6.980;2023-03-05T03:29:16;4.10;99.90
20504;DHT22;10410;51.046;6.980;2023-03-05T03:36:17;4.10;99.90
20504;DHT22;10410;51.046;6.980;2023-03-05T03:43:17;4.10;99.90
20504;DHT22;10410;51.046;6.980;2023-03-05T03:50:18;4.00;99.90
20504;DHT22;10410;51.046;6.980;2023-03-05T03:57:20;4.00;99.90
20504;DHT22;10410;51.046;6.980;2023-03-05T04:04:21;4.00;99.90
20504;DHT22;10410;51.046;6.980;2023-03-05T04:11:21;4.00;99.90
20504;DHT22;10410;51.046;6.980;2023-03-05T04:18:21;4.00;99.90
20504;DHT22;10410;51.046;6.980;2023-03-05T04:25:22;3.90;99.90
20504;DHT22;10410;51.046;6.980;2023-03-05T04:32:23;3.90;99.90
20504;DHT22;10410;51.046;6.980;2023-03-05T04:39:28;3.90;99.90
20504;DHT22;10410;51.046;6.980;2023-03-05T04:46:29;3.80;99.90
20504;DHT22;10410;51.046;6.980;2023-03-05T04:53:29;3.70;99.90
20504;DHT22;10410;51.046;6.980;2023-03-05T05:00:30;3.60;99.90
20504;DHT22;10410;51.046;6.980;2023-03-05T05:07:30;3.50;99.90
20504;DHT22;10410;51.046;6.980;2023-03-05T05:14:33;3.50;99.90
20504;DHT22;10410;51.046;6.980;2023-03-05T05:21:33;3.50;99.90
20504;DHT22;10410;51.046;6.980;2023-03-05T05:28:34;3.50;99.90
20504;DHT22;10410;51.046;6.980;2023-03-05T05:35:38;3.50;99.90
20504;DHT22;10410;51.046;6.980;2023-03-05T05:42:39;3.50;99.90
20504;DHT22;10410;51.046;6.980;2023-03-05T05:49:39;3.50;99.90
20504;DHT22;10410;51.046;6.980;2023-03-05T05:56:39;3.60;99.90
20504;DHT22;10410;51.046;6.980;2023-03-05T06:03:40;3.60;99.90
20504;DHT22;10410;51.046;6.980;2023-03-05T06:10:40;3.50;99.90
20504;DHT22;10410;51.046;6.980;2023-03-05T06:17:41;3.60;99.90
20504;DHT22;10410;51.046;6.980;2023-03-05T06:24:41;3.60;99.90
20504;DHT22;10410;51.046;6.980;2023-03-05T06:31:41;3.80;99.90
20504;DHT22;10410;51.046;6.980;2023-03-05T06:38:43;3.80;99.90
20504;DHT22;10410;51.046;6.980;2023-03-05T06:45:43;3.80;99.90
20504;DHT22;10410;51.046;6.980;2023-03-05T06:52:43;3.80;99.90
20504;DHT22;10410;51.046;6.980;2023-03-05T06:59:44;3.80;99.90
20504;DHT22;10410;51.046;6.980;2023-03-05T07:06:44;3.80;99.90
20504;DHT22;10410;51.046;6.980;2023-03-05T07:13:45;3.80;99.90
20504;DHT22;10410;51.046;6.980;2023-03-05T07:20:46;3.90;99.90
20504;DHT22;10410;51.046;6.980;2023-03-05T07:27:47;4.00;99.90
20504;DHT22;10410;51.046;6.980;2023-03-05T07:34:47;4.00;99.90
20504;DHT22;10410;51.046;6.980;2023-03-05T07:41:48;4.10;99.90
20504;DHT22;10410;51.046;6.980;2023-03-05T07:48:51;4.20;99.90
20504;DHT22;10410;51.046;6.980;2023-03-05T07:55:53;4.30;99.90
20504;DHT22;10410;51.046;6.980;2023-03-05T08:02:54;4.30;99.90
20504;DHT22;10410;51.046;6.980;2023-03-05T08:09:54;4.30;99.90
20504;DHT22;10410;51.046;6.980;2023-03-05T08:16:55;4.30;99.90
20504;DHT22;10410;51.046;6.980;2023-03-05T08:23:56;4.20;99.90
20504;DHT22;10410;51.046;6.980;2023-03-05T08:30:57;4.20;99.90
20504;DHT22;10410;51.046;6.980;2023-03-05T08:37:57;4.20;99.90
20504;DHT22;10410;51.046;6.980;2023-03-05T08:44:58;4.30;99.90
20504;DHT22;10410;51.046;6.980;2023-03-05T08:51:58;4.30;99.90
20504;DHT22;10410;51.046;6.980;2023-03-05T08:58:59;4.40;99.90
20504;DHT22;10410;51.046;6.980;2023-03-05T09:06:04;4.40;99.90
20504;DHT22;10410;51.046;6.980;2023-03-05T09:13:05;4.50;99.90
20504;DHT22;10410;51.046;6.980;2023-03-05T09:20:09;4.60;99.90
20504;DHT22;10410;51.046;6.980;2023-03-05T09:27:10;4.70;99.90
20504;DHT22;10410;51.046;6.980;2023-03-05T09:34:11;4.70;99.90
20504;DHT22;10410;51.046;6.980;2023-03-05T09:41:34;4.90;99.90
20504;DHT22;10410;51.046;6.980;2023-03-05T09:48:49;5.00;99.90
20504;DHT22;10410;51.046;6.980;2023-03-05T09:55:52;5.10;99.90
20504;DHT22;10410;51.046;6.980;2023-03-05T10:02:55;5.20;99.90
20504;DHT22;10410;51.046;6.980;2023-03-05T10:10:04;5.20;99.90
20504;DHT22;10410;51.046;6.980;2023-03-05T10:17:26;5.10;99.90
20504;DHT22;10410;51.046;6.980;2023-03-05T10:24:51;4.90;99.90
20504;DHT22;10410;51.046;6.980;2023-03-05T10:39:19;4.70;99.90
20504;DHT22;10410;51.046;6.980;2023-03-05T10:46:30;4.70;99.90
20504;DHT22;10410;51.046;6.980;2023-03-05T10:53:35;4.60;99.90
20504;DHT22;10410;51.046;6.980;2023-03-05T11:00:37;4.40;99.90
20504;DHT22;10410;51.046;6.980;2023-03-05T11:07:38;4.50;99.90
20504;DHT22;10410;51.046;6.980;2023-03-05T11:15:00;4.40;99.90
20504;DHT22;10410;51.046;6.980;2023-03-05T11:22:21;4.40;99.90
20504;DHT22;10410;51.046;6.980;2023-03-05T11:29:29;4.40;99.90
20504;DHT22;10410;51.046;6.980;2023-03-05T11:37:18;4.40;99.90
20504;DHT22;10410;51.046;6.980;2023-03-05T11:43:57;4.50;99.90
20504;DHT22;10410;51.046;6.980;2023-03-05T11:51:00;4.50;99.90
20504;DHT22;10410;51.046;6.980;2023-03-05T11:58:31;4.70;99.90
20504;DHT22;10410;51.046;6.980;2023-03-05T12:05:34;4.80;99.90
20504;DHT22;10410;51.046;6.980;2023-03-05T12:19:50;5.00;99.90
20504;DHT22;10410;51.046;6.980;2023-03-05T12:33:53;5.30;99.90
20504;DHT22;10410;51.046;6.980;2023-03-05T13:02:44;5.50;99.90
20504;DHT22;10410;51.046;6.980;2023-03-05T13:09:56;5.60;99.90
20504;DHT22;10410;51.046;6.980;2023-03-05T13:16:57;5.70;99.90
20504;DHT22;10410;51.046;6.980;2023-03-05T13:24:00;5.90;99.90
20504;DHT22;10410;51.046;6.980;2023-03-05T13:31:03;5.90;99.90
20504;DHT22;10410;51.046;6.980;2023-03-05T13:45:30;6.10;99.90
20504;DHT22;10410;51.046;6.980;2023-03-05T13:52:36;6.10;99.90
20504;DHT22;10410;51.046;6.980;2023-03-05T13:59:37;6.10;99.90
20504;DHT22;10410;51.046;6.980;2023-03-05T14:14:21;6.20;99.90
20504;DHT22;10410;51.046;6.980;2023-03-05T14:21:22;6.10;99.90
20504;DHT22;10410;51.046;6.980;2023-03-05T14:28:27;6.10;99.90
20504;DHT22;10410;51.046;6.980;2023-03-05T14:35:28;6.10;99.90
20504;DHT22;10410;51.046;6.980;2023-03-05T14:42:35;6.00;99.90
20504;DHT22;10410;51.046;6.980;2023-03-05T14:49:38;6.00;99.90
20504;DHT22;10410;51.046;6.980;2023-03-05T14:56:39;5.80;99.90
20504;DHT22;10410;51.046;6.980;2023-03-05T15:03:39;5.70;99.90
20504;DHT22;10410;51.046;6.980;2023-03-05T15:10:40;5.50;99.90
20504;DHT22;10410;51.046;6.980;2023-03-05T15:17:44;5.10;99.90
20504;DHT22;10410;51.046;6.980;2023-03-05T15:24:47;4.90;99.90
20504;DHT22;10410;51.046;6.980;2023-03-05T15:31:52;4.90;99.90
20504;DHT22;10410;51.046;6.980;2023-03-05T15:38:52;4.90;99.90
20504;DHT22;10410;51.046;6.980;2023-03-05T15:45:52;5.00;99.90
20504;DHT22;10410;51.046;6.980;2023-03-05T15:52:53;5.00;99.90
20504;DHT22;10410;51.046;6.980;2023-03-05T15:59:54;5.00;99.90
20504;DHT22;10410;51.046;6.980;2023-03-05T16:06:55;5.00;99.90
20504;DHT22;10410;51.046;6.980;2023-03-05T16:14:00;5.00;99.90
20504;DHT22;10410;51.046;6.980;2023-03-05T16:21:02;5.00;99.90
20504;DHT22;10410;51.046;6.980;2023-03-05T16:28:03;5.00;99.90
20504;DHT22;10410;51.046;6.980;2023-03-05T16:35:04;5.10;99.90
20504;DHT22;10410;51.046;6.980;2023-03-05T16:42:05;5.10;99.90
20504;DHT22;10410;51.046;6.980;2023-03-05T16:49:07;5.20;99.90
20504;DHT22;10410;51.046;6.980;2023-03-05T16:56:08;5.20;99.90
20504;DHT22;10410;51.046;6.980;2023-03-05T17:03:09;5.10;99.90
20504;DHT22;10410;51.046;6.980;2023-03-05T17:10:10;5.10;99.90
20504;DHT22;10410;51.046;6.980;2023-03-05T17:17:11;5.10;99.90
20504;DHT22;10410;51.046;6.980;2023-03-05T17:24:11;5.00;99.90
20504;DHT22;10410;51.046;6.980;2023-03-05T17:31:12;5.00;99.90
20504;DHT22;10410;51.046;6.980;2023-03-05T17:38:13;5.00;99.90
20504;DHT22;10410;51.046;6.980;2023-03-05T17:45:14;5.00;99.90
20504;DHT22;10410;51.046;6.980;2023-03-05T17:52:14;5.00;99.90
20504;DHT22;10410;51.046;6.980;2023-03-05T17:59:15;4.90;99.90
20504;DHT22;10410;51.046;6.980;2023-03-05T18:06:15;4.80;99.90
20504;DHT22;10410;51.046;6.980;2023-03-05T18:13:16;4.80;99.90
20504;DHT22;10410;51.046;6.980;2023-03-05T18:20:35;4.70;99.90
20504;DHT22;10410;51.046;6.980;2023-03-05T18:27:36;4.70;99.90
20504;DHT22;10410;51.046;6.980;2023-03-05T18:34:36;4.70;99.90
20504;DHT22;10410;51.046;6.980;2023-03-05T18:41:37;4.60;99.90
20504;DHT22;10410;51.046;6.980;2023-03-05T18:48:37;4.60;99.90
20504;DHT22;10410;51.046;6.980;2023-03-05T18:55:38;4.60;99.90
20504;DHT22;10410;51.046;6.980;2023-03-05T19:02:41;4.60;99.90
20504;DHT22;10410;51.046;6.980;2023-03-05T19:09:48;4.50;99.90
20504;DHT22;10410;51.046;6.980;2023-03-05T19:16:52;4.50;99.90
20504;DHT22;10410;51.046;6.980;2023-03-05T19:23:52;4.50;99.90
20504;DHT22;10410;51.046;6.980;2023-03-05T19:30:53;4.40;99.90
20504;DHT22;10410;51.046;6.980;2023-03-05T19:37:53;4.40;99.90
20504;DHT22;10410;51.046;6.980;2023-03-05T19:44:54;4.40;99.90
20504;DHT22;10410;51.046;6.980;2023-03-05T19:51:54;4.40;99.90
20504;DHT22;10410;51.046;6.980;2023-03-05T19:58:54;4.40;99.90
20504;DHT22;10410;51.046;6.980;2023-03-05T20:05:55;4.40;99.90
20504;DHT22;10410;51.046;6.980;2023-03-05T20:12:55;4.30;99.90
20504;DHT22;10410;51.046;6.980;2023-03-05T20:19:56;4.20;99.90
20504;DHT22;10410;51.046;6.980;2023-03-05T20:26:58;4.20;99.90
20504;DHT22;10410;51.046;6.980;2023-03-05T20:33:59;4.20;99.90
20504;DHT22;10410;51.046;6.980;2023-03-05T20:41:06;4.30;99.90
20504;DHT22;10410;51.046;6.980;2023-03-05T20:48:06;4.20;99.90
20504;DHT22;10410;51.046;6.980;2023-03-05T20:55:08;4.20;99.90
20504;DHT22;10410;51.046;6.980;2023-03-05T21:02:08;4.20;99.90
20504;DHT22;10410;51.046;6.980;2023-03-05T21:09:09;4.20;99.90
20504;DHT22;10410;51.046;6.980;2023-03-05T21:16:15;4.20;99.90
20504;DHT22;10410;51.046;6.980;2023-03-05T21:23:15;4.20;99.90
20504;DHT22;10410;51.046;6.980;2023-03-05T21:30:18;4.10;99.90
20504;DHT22;10410;51.046;6.980;2023-03-05T21:37:18;4.10;99.90
20504;DHT22;10410;51.046;6.980;2023-03-05T21:44:18;4.10;99.90
20504;DHT22;10410;51.046;6.980;2023-03-05T21:51:19;4.10;99.90
20504;DHT22;10410;51.046;6.980;2023-03-05T21:58:21;4.10;99.90
20504;DHT22;10410;51.046;6.980;2023-03-05T22:05:22;4.00;99.90
20504;DHT22;10410;51.046;6.980;2023-03-05T22:12:23;4.00;99.90
20504;DHT22;10410;51.046;6.980;2023-03-05T22:19:38;3.90;99.90
20504;DHT22;10410;51.046;6.980;2023-03-05T22:26:39;3.80;99.90
20504;DHT22;10410;51.046;6.980;2023-03-05T22:33:40;3.80;99.90
20504;DHT22;10410;51.046;6.980;2023-03-05T22:40:45;3.70;99.90
20504;DHT22;10410;51.046;6.980;2023-03-05T22:47:47;3.60;99.90
20504;DHT22;10410;51.046;6.980;2023-03-05T22:54:48;3.60;99.90
20504;DHT22;10410;51.046;6.980;2023-03-05T23:01:48;3.50;99.90
20504;DHT22;10410;51.046;6.980;2023-03-05T23:08:49;3.50;99.90
20504;DHT22;10410;51.046;6.980;2023-03-05T23:15:49;3.40;99.90
20504;DHT22;10410;51.046;6.980;2023-03-05T23:22:51;3.30;99.90
20504;DHT22;10410;51.046;6.980;2023-03-05T23:37:24;3.20;99.90
20504;DHT22;10410;51.046;6.980;2023-03-05T23:44:24;3.20;99.90
20504;DHT22;10410;51.046;6.980;2023-03-05T23:51:25;3.20;99.90
20504;DHT22;10410;51.046;6.980;2023-03-05T23:58:25;3.20;99.90
